createdAt,value
2022-09-12T04:00:31.811Z,15.27
2022-09-12T04:01:31.805Z,15.14
2022-09-12T04:02:31.793Z,15.13
2022-09-12T04:03:31.734Z,15.16
2022-09-12T04:04:31.735Z,15.17
2022-09-12T04:05:31.709Z,15.09
2022-09-12T04:06:31.695Z,15.07
2022-09-12T04:07:31.687Z,15.13
2022-09-12T04:08:31.678Z,15.11
2022-09-12T04:09:31.680Z,15.10
2022-09-12T04:10:31.656Z,15.11
2022-09-12T04:11:36.664Z,15.06
2022-09-12T04:12:31.629Z,15.10
2022-09-12T04:13:31.618Z,15.10
2022-09-12T04:14:31.620Z,15.07
2022-09-12T04:15:31.600Z,15.09
2022-09-12T04:16:31.650Z,15.11
2022-09-12T04:17:31.574Z,15.09
2022-09-12T04:18:31.562Z,15.06
2022-09-12T04:19:31.586Z,15.09
2022-09-12T04:20:31.552Z,15.09
2022-09-12T04:21:31.533Z,15.07
2022-09-12T04:22:36.537Z,15.02
2022-09-12T04:23:31.508Z,15.10
2022-09-12T04:24:31.506Z,14.99
2022-09-12T04:25:31.518Z,15.07
2022-09-12T04:26:31.482Z,15.02
2022-09-12T04:27:31.459Z,15.06
2022-09-12T04:28:31.451Z,15.13
2022-09-12T04:29:31.487Z,15.06
2022-09-12T04:30:31.468Z,14.96
2022-09-12T04:31:31.420Z,14.99
2022-09-12T04:32:31.426Z,14.99
2022-09-12T04:33:36.456Z,14.92
2022-09-12T04:34:31.391Z,14.88
2022-09-12T04:35:31.369Z,14.92
2022-09-12T04:36:31.364Z,14.99
2022-09-12T04:37:31.345Z,14.99
2022-09-12T04:38:31.332Z,14.94
2022-09-12T04:39:31.332Z,15.02
2022-09-12T04:40:31.313Z,15.03
2022-09-12T04:41:31.298Z,15.06
2022-09-12T04:42:31.287Z,14.91
2022-09-12T04:43:31.275Z,15.02
2022-09-12T04:44:36.301Z,15.03
2022-09-12T04:45:31.291Z,14.96
2022-09-12T04:46:31.239Z,15.02
2022-09-12T04:47:31.232Z,15.01
2022-09-12T04:48:31.236Z,14.92
2022-09-12T04:49:31.219Z,14.99
2022-09-12T04:50:31.195Z,15.03
2022-09-12T04:51:31.180Z,15.03
2022-09-12T04:52:31.171Z,15.03
2022-09-12T04:53:31.160Z,15.03
2022-09-12T04:54:31.162Z,15.02
2022-09-12T04:55:36.175Z,15.03
2022-09-12T04:56:31.129Z,14.95
2022-09-12T04:57:31.114Z,15.03
2022-09-12T04:58:31.110Z,15.01
2022-09-12T04:59:31.100Z,15.07
2022-09-12T05:00:31.086Z,15.02
2022-09-12T05:01:31.183Z,14.99
2022-09-12T05:02:31.097Z,15.01
2022-09-12T05:03:31.050Z,14.94
2022-09-12T05:04:31.060Z,14.88
2022-09-12T05:05:31.034Z,14.88
2022-09-12T05:06:36.028Z,14.70
2022-09-12T05:07:30.996Z,14.80
2022-09-12T05:08:30.984Z,14.70
2022-09-12T05:09:30.993Z,14.77
2022-09-12T05:10:30.967Z,14.83
2022-09-12T05:11:59.681Z,14.73
2022-09-12T05:12:31.986Z,14.75
2022-09-12T05:13:31.064Z,14.77
2022-09-12T05:14:30.915Z,14.86
2022-09-12T05:15:30.916Z,14.73
2022-09-12T05:16:30.941Z,14.81
2022-09-12T05:17:35.906Z,14.91
2022-09-12T05:18:30.888Z,14.83
2022-09-12T05:19:30.861Z,14.81
2022-09-12T05:20:30.878Z,14.80
2022-09-12T05:21:30.903Z,14.89
2022-09-12T05:22:30.854Z,14.81
2022-09-12T05:23:30.820Z,14.92
2022-09-12T05:24:30.828Z,14.96
2022-09-12T05:25:30.792Z,14.84
2022-09-12T05:26:30.783Z,14.89
2022-09-12T05:27:30.779Z,14.86
2022-09-12T05:28:35.778Z,15.01
2022-09-12T05:29:30.771Z,14.99
2022-09-12T05:30:30.780Z,14.99
2022-09-12T05:31:30.738Z,14.99
2022-09-12T05:32:30.710Z,15.10
2022-09-12T05:33:30.702Z,15.10
2022-09-12T05:34:30.695Z,15.02
2022-09-12T05:35:30.682Z,15.10
2022-09-12T05:36:30.689Z,15.06
2022-09-12T05:37:30.649Z,15.03
2022-09-12T05:38:30.635Z,15.01
2022-09-12T05:39:35.671Z,15.07
2022-09-12T05:40:30.617Z,15.02
2022-09-12T05:41:30.612Z,14.96
2022-09-12T05:42:30.603Z,14.98
2022-09-12T05:43:30.582Z,15.03
2022-09-12T05:44:30.575Z,15.06
2022-09-12T05:45:30.620Z,15.01
2022-09-12T05:46:30.558Z,15.11
2022-09-12T05:47:30.547Z,15.16
2022-09-12T05:48:30.521Z,15.23
2022-09-12T05:49:30.514Z,15.28
2022-09-12T05:50:35.542Z,15.38
2022-09-12T05:51:30.497Z,15.39
2022-09-12T05:52:30.494Z,15.38
2022-09-12T05:53:30.468Z,15.39
2022-09-12T05:54:31.723Z,15.34
2022-09-12T05:55:30.457Z,15.35
2022-09-12T05:56:30.437Z,15.46
2022-09-12T05:57:30.424Z,15.41
2022-09-12T05:58:30.417Z,15.35
2022-09-12T05:59:30.402Z,15.47
2022-09-12T06:00:33.536Z,15.44
2022-09-12T06:01:35.458Z,15.44
2022-09-12T06:02:30.402Z,15.46
2022-09-12T06:03:30.361Z,15.38
2022-09-12T06:04:30.358Z,15.44
2022-09-12T06:05:30.357Z,15.32
2022-09-12T06:06:30.322Z,15.39
2022-09-12T06:07:30.314Z,15.36
2022-09-12T06:08:30.323Z,15.25
2022-09-12T06:09:30.307Z,15.31
2022-09-12T06:10:30.334Z,15.25
2022-09-12T06:11:30.307Z,15.28
2022-09-12T06:12:35.321Z,15.31
2022-09-12T06:13:30.269Z,15.32
2022-09-12T06:14:30.341Z,15.35
2022-09-12T06:15:30.302Z,15.36
2022-09-12T06:16:30.236Z,15.32
2022-09-12T06:17:30.205Z,15.36
2022-09-12T06:18:30.191Z,15.43
2022-09-12T06:19:30.188Z,15.47
2022-09-12T06:20:30.476Z,15.44
2022-09-12T06:21:30.169Z,15.53
2022-09-12T06:22:30.227Z,15.50
2022-09-12T06:23:35.166Z,15.51
2022-09-12T06:24:30.120Z,15.59
2022-09-12T06:25:30.129Z,15.64
2022-09-12T06:26:30.095Z,15.56
2022-09-12T06:27:30.101Z,15.59
2022-09-12T06:28:30.111Z,15.67
2022-09-12T06:29:30.144Z,15.67
2022-09-12T06:30:30.162Z,15.72
2022-09-12T06:31:30.039Z,15.69
2022-09-12T06:32:30.038Z,15.67
2022-09-12T06:33:30.026Z,15.69
2022-09-12T06:34:35.045Z,15.71
2022-09-12T06:35:30.004Z,15.72
2022-09-12T06:36:29.986Z,15.74
2022-09-12T06:37:29.974Z,15.75
2022-09-12T06:38:29.956Z,15.68
2022-09-12T06:39:29.973Z,15.68
2022-09-12T06:40:29.996Z,15.71
2022-09-12T06:41:29.934Z,15.76
2022-09-12T06:42:29.910Z,15.83
2022-09-12T06:43:29.910Z,15.84
2022-09-12T06:44:29.940Z,15.84
2022-09-12T06:45:34.921Z,15.87
2022-09-12T06:46:29.864Z,15.93
2022-09-12T06:47:29.854Z,15.97
2022-09-12T06:48:29.842Z,15.92
2022-09-12T06:49:29.832Z,16.09
2022-09-12T06:50:29.822Z,16.12
2022-09-12T06:51:29.830Z,16.08
2022-09-12T06:52:29.800Z,16.15
2022-09-12T06:53:29.809Z,16.15
2022-09-12T06:54:29.790Z,16.39
2022-09-12T06:55:29.780Z,16.31
2022-09-12T06:56:34.797Z,16.38
2022-09-12T06:57:29.743Z,16.35
2022-09-12T06:58:29.735Z,16.33
2022-09-12T06:59:29.721Z,16.45
2022-09-12T07:00:29.711Z,16.43
2022-09-12T07:01:29.759Z,16.52
2022-09-12T07:02:29.779Z,16.50
2022-09-12T07:03:29.672Z,16.50
2022-09-12T07:04:29.675Z,16.53
2022-09-12T07:05:29.648Z,16.68
2022-09-12T07:06:29.655Z,16.67
2022-09-12T07:07:34.649Z,16.71
2022-09-12T07:08:29.621Z,16.81
2022-09-12T07:09:29.605Z,16.76
2022-09-12T07:10:29.603Z,16.75
2022-09-12T07:11:29.613Z,16.86
2022-09-12T07:12:29.573Z,16.86
2022-09-12T07:13:29.561Z,16.93
2022-09-12T07:14:29.554Z,16.98
2022-09-12T07:15:29.563Z,17.12
2022-09-12T07:16:30.390Z,17.08
2022-09-12T07:17:29.512Z,17.15
2022-09-12T07:18:34.533Z,17.14
2022-09-12T07:19:29.495Z,17.08
2022-09-12T07:20:29.491Z,17.16
2022-09-12T07:21:29.517Z,17.22
2022-09-12T07:22:29.457Z,17.33
2022-09-12T07:23:29.444Z,17.36
2022-09-12T07:24:29.434Z,17.40
2022-09-12T07:25:29.429Z,17.49
2022-09-12T07:26:29.429Z,17.58
2022-09-12T07:27:29.419Z,17.55
2022-09-12T07:28:29.391Z,17.54
2022-09-12T07:29:37.428Z,17.52
2022-09-12T07:30:29.451Z,17.62
2022-09-12T07:31:29.375Z,17.59
2022-09-12T07:32:29.367Z,17.64
2022-09-12T07:33:29.339Z,17.75
2022-09-12T07:34:29.349Z,17.77
2022-09-12T07:35:29.312Z,17.84
2022-09-12T07:36:29.324Z,17.79
2022-09-12T07:37:29.313Z,17.92
2022-09-12T07:38:29.275Z,17.74
2022-09-12T07:39:29.273Z,17.81
2022-09-12T07:40:34.289Z,17.75
2022-09-12T07:41:29.245Z,17.87
2022-09-12T07:42:29.230Z,17.86
2022-09-12T07:43:29.238Z,17.84
2022-09-12T07:44:29.208Z,18.05
2022-09-12T07:45:29.196Z,18.11
2022-09-12T07:46:29.195Z,18.03
2022-09-12T07:47:29.178Z,18.11
2022-09-12T07:48:29.170Z,18.10
2022-09-12T07:49:29.154Z,18.21
2022-09-12T07:50:29.145Z,18.27
2022-09-12T07:51:34.163Z,18.33
2022-09-12T07:52:29.119Z,18.41
2022-09-12T07:53:29.306Z,18.52
2022-09-12T07:54:29.103Z,18.44
2022-09-12T07:55:29.152Z,18.50
2022-09-12T07:56:31.927Z,18.80
2022-09-12T07:57:29.060Z,18.95
2022-09-12T07:58:29.051Z,18.98
2022-09-12T07:59:50.926Z,19.02
2022-09-12T08:00:30.026Z,19.02
2022-09-12T08:01:29.106Z,19.00
2022-09-12T08:02:34.095Z,18.92
2022-09-12T08:03:29.011Z,18.94
2022-09-12T08:04:28.983Z,18.88
2022-09-12T08:05:28.992Z,18.75
2022-09-12T08:06:29.035Z,18.80
2022-09-12T08:07:28.998Z,18.80
2022-09-12T08:08:28.935Z,18.80
2022-09-12T08:09:28.921Z,18.73
2022-09-12T08:10:28.915Z,18.73
2022-09-12T08:11:28.923Z,18.65
2022-09-12T08:12:28.890Z,18.69
2022-09-12T08:13:33.898Z,18.76
2022-09-12T08:14:28.866Z,18.94
2022-09-12T08:15:28.940Z,18.91
2022-09-12T08:16:28.862Z,19.04
2022-09-12T08:17:28.843Z,19.13
2022-09-12T08:18:28.823Z,19.10
2022-09-12T08:19:28.809Z,19.18
2022-09-12T08:20:28.869Z,19.25
2022-09-12T08:21:28.800Z,19.37
2022-09-12T08:22:28.775Z,19.37
2022-09-12T08:23:28.765Z,19.41
2022-09-12T08:24:33.774Z,19.36
2022-09-12T08:25:28.740Z,19.37
2022-09-12T08:26:28.747Z,19.37
2022-09-12T08:27:28.734Z,19.40
2022-09-12T08:28:28.736Z,19.40
2022-09-12T08:29:28.694Z,19.43
2022-09-12T08:30:28.724Z,19.50
2022-09-12T08:31:28.704Z,19.54
2022-09-12T08:32:28.669Z,19.50
2022-09-12T08:33:28.650Z,19.56
2022-09-12T08:34:28.645Z,19.51
2022-09-12T08:35:33.659Z,19.69
2022-09-12T08:36:28.626Z,19.73
2022-09-12T08:37:28.607Z,19.55
2022-09-12T08:38:28.602Z,19.58
2022-09-12T08:39:28.587Z,19.62
2022-09-12T08:40:28.573Z,19.74
2022-09-12T08:41:28.572Z,19.74
2022-09-12T08:42:28.552Z,19.78
2022-09-12T08:43:28.542Z,19.80
2022-09-12T08:44:28.529Z,19.84
2022-09-12T08:45:28.515Z,19.88
2022-09-12T08:46:33.552Z,19.87
2022-09-12T08:47:28.497Z,19.83
2022-09-12T08:48:28.482Z,19.83
2022-09-12T08:49:28.467Z,20.03
2022-09-12T08:50:28.464Z,20.06
2022-09-12T08:51:28.505Z,20.14
2022-09-12T08:52:28.632Z,20.20
2022-09-12T08:53:28.432Z,20.24
2022-09-12T08:54:28.419Z,20.38
2022-09-12T08:55:28.403Z,20.41
2022-09-12T08:56:31.556Z,20.50
2022-09-12T08:57:33.420Z,20.47
2022-09-12T08:58:28.369Z,20.54
2022-09-12T08:59:28.361Z,20.52
2022-09-12T09:00:28.358Z,20.64
2022-09-12T09:01:28.427Z,20.67
2022-09-12T09:02:28.397Z,20.66
2022-09-12T09:03:28.343Z,20.66
2022-09-12T09:04:29.012Z,20.70
2022-09-12T09:05:28.289Z,20.74
2022-09-12T09:06:28.288Z,20.79
2022-09-12T09:07:28.268Z,20.82
2022-09-12T09:08:33.276Z,20.72
2022-09-12T09:09:28.242Z,20.70
2022-09-12T09:10:28.242Z,20.80
2022-09-12T09:11:28.240Z,20.97
2022-09-12T09:12:28.212Z,21.06
2022-09-12T09:13:28.198Z,21.06
2022-09-12T09:14:28.186Z,21.09
2022-09-12T09:15:28.296Z,21.09
2022-09-12T09:16:28.178Z,21.09
2022-09-12T09:17:28.159Z,21.16
2022-09-12T09:18:28.175Z,21.24
2022-09-12T09:19:33.175Z,21.40
2022-09-12T09:20:28.119Z,21.53
2022-09-12T09:21:28.119Z,21.61
2022-09-12T09:22:28.100Z,21.52
2022-09-12T09:23:28.083Z,21.53
2022-09-12T09:24:28.102Z,21.64
2022-09-12T09:25:28.061Z,21.54
2022-09-12T09:26:28.069Z,21.56
2022-09-12T09:27:40.607Z,21.71
2022-09-12T09:28:29.035Z,21.77
2022-09-12T09:29:28.025Z,21.82
2022-09-12T09:30:33.039Z,21.86
2022-09-12T09:31:28.070Z,22.00
2022-09-12T09:32:27.997Z,21.96
2022-09-12T09:33:27.979Z,21.92
2022-09-12T09:34:27.982Z,21.99
2022-09-12T09:35:27.951Z,22.07
2022-09-12T09:36:27.945Z,21.91
2022-09-12T09:37:27.936Z,21.77
2022-09-12T09:38:27.959Z,21.77
2022-09-12T09:39:27.997Z,21.53
2022-09-12T09:40:27.923Z,21.42
2022-09-12T09:41:32.954Z,21.54
2022-09-12T09:42:34.532Z,21.49
2022-09-12T09:43:27.860Z,21.52
2022-09-12T09:44:27.849Z,21.67
2022-09-12T09:45:27.836Z,21.71
2022-09-12T09:46:27.924Z,21.72
2022-09-12T09:47:27.842Z,21.83
2022-09-12T09:48:27.803Z,21.91
2022-09-12T09:49:27.790Z,21.98
2022-09-12T09:50:27.810Z,22.05
2022-09-12T09:51:27.767Z,22.14
2022-09-12T09:52:32.789Z,22.00
2022-09-12T09:53:27.822Z,21.99
2022-09-12T09:54:27.737Z,22.02
2022-09-12T09:55:27.722Z,21.92
2022-09-12T09:56:27.710Z,21.80
2022-09-12T09:57:27.709Z,21.74
2022-09-12T09:58:27.695Z,21.69
2022-09-12T09:59:27.685Z,21.72
2022-09-12T10:00:27.702Z,21.84
2022-09-12T10:01:27.702Z,21.84
2022-09-12T10:02:27.752Z,21.80
2022-09-12T10:03:32.663Z,21.88
2022-09-12T10:04:27.624Z,21.94
2022-09-12T10:05:27.608Z,21.88
2022-09-12T10:06:27.616Z,22.00
2022-09-12T10:07:27.701Z,21.84
2022-09-12T10:08:27.651Z,21.92
2022-09-12T10:09:27.562Z,21.94
2022-09-12T10:10:27.551Z,22.02
2022-09-12T10:11:27.541Z,22.06
2022-09-12T10:12:27.541Z,22.06
2022-09-12T10:13:27.521Z,22.12
2022-09-12T10:14:32.531Z,22.07
2022-09-12T10:15:27.492Z,22.07
2022-09-12T10:16:27.483Z,22.15
2022-09-12T10:17:31.747Z,22.15
2022-09-12T10:18:28.458Z,22.21
2022-09-12T10:19:27.446Z,22.18
2022-09-12T10:20:27.435Z,22.27
2022-09-12T10:21:27.430Z,22.31
2022-09-12T10:22:27.451Z,22.33
2022-09-12T10:23:27.399Z,22.39
2022-09-12T10:24:27.601Z,22.39
2022-09-12T10:25:32.435Z,22.46
2022-09-12T10:26:27.370Z,22.42
2022-09-12T10:27:27.363Z,22.37
2022-09-12T10:28:27.344Z,22.28
2022-09-12T10:29:27.330Z,22.30
2022-09-12T10:30:27.371Z,22.37
2022-09-12T10:31:27.308Z,22.45
2022-09-12T10:32:30.703Z,22.49
2022-09-12T10:33:27.284Z,22.49
2022-09-12T10:34:27.275Z,22.58
2022-09-12T10:35:27.262Z,22.68
2022-09-12T10:36:32.276Z,22.57
2022-09-12T10:37:27.249Z,22.65
2022-09-12T10:38:27.251Z,22.70
2022-09-12T10:39:27.217Z,22.79
2022-09-12T10:40:27.215Z,23.00
2022-09-12T10:41:27.198Z,23.02
2022-09-12T10:42:27.201Z,23.32
2022-09-12T10:43:27.175Z,23.58
2022-09-12T10:44:27.266Z,23.72
2022-09-12T10:45:27.152Z,23.84
2022-09-12T10:46:27.265Z,23.90
2022-09-12T10:47:32.164Z,23.83
2022-09-12T10:48:27.119Z,23.83
2022-09-12T10:49:27.115Z,23.66
2022-09-12T10:50:27.128Z,23.54
2022-09-12T10:51:27.089Z,23.39
2022-09-12T10:52:27.112Z,23.32
2022-09-12T10:53:31.002Z,23.27
2022-09-12T10:54:28.070Z,23.32
2022-09-12T10:55:27.042Z,23.35
2022-09-12T10:56:27.029Z,23.32
2022-09-12T10:57:27.015Z,23.35
2022-09-12T10:58:32.038Z,23.28
2022-09-12T10:59:27.005Z,23.28
2022-09-12T11:00:26.982Z,23.28
2022-09-12T11:01:26.996Z,23.31
2022-09-12T11:02:27.011Z,23.42
2022-09-12T11:03:26.960Z,23.42
2022-09-12T11:04:26.941Z,23.38
2022-09-12T11:05:26.965Z,23.50
2022-09-12T11:06:26.930Z,23.57
2022-09-12T11:07:26.918Z,23.51
2022-09-12T11:08:27.041Z,23.48
2022-09-12T11:09:31.919Z,23.68
2022-09-12T11:10:26.885Z,23.69
2022-09-12T11:11:26.860Z,23.58
2022-09-12T11:12:26.858Z,23.43
2022-09-12T11:13:26.847Z,23.51
2022-09-12T11:14:26.827Z,23.46
2022-09-12T11:15:26.816Z,23.40
2022-09-12T11:16:26.824Z,23.20
2022-09-12T11:17:26.792Z,23.15
2022-09-12T11:18:26.792Z,23.12
2022-09-12T11:19:26.776Z,23.19
2022-09-12T11:20:31.782Z,23.27
2022-09-12T11:21:26.753Z,23.32
2022-09-12T11:22:31.068Z,23.46
2022-09-12T11:23:27.736Z,23.54
2022-09-12T11:24:26.715Z,23.55
2022-09-12T11:25:26.724Z,23.66
2022-09-12T11:26:26.693Z,23.70
2022-09-12T11:27:26.680Z,23.83
2022-09-12T11:28:26.679Z,24.12
2022-09-12T11:29:26.658Z,24.52
2022-09-12T11:30:26.646Z,24.61
2022-09-12T11:31:31.657Z,24.50
2022-09-12T11:32:26.626Z,24.47
2022-09-12T11:33:26.625Z,24.35
2022-09-12T11:34:26.601Z,24.53
2022-09-12T11:35:26.592Z,24.62
2022-09-12T11:36:26.582Z,24.98
2022-09-12T11:37:26.671Z,25.18
2022-09-12T11:38:26.568Z,25.23
2022-09-12T11:39:26.545Z,25.30
2022-09-12T11:40:26.599Z,25.33
2022-09-12T11:41:26.542Z,25.20
2022-09-12T11:42:31.532Z,25.02
2022-09-12T11:43:26.515Z,25.21
2022-09-12T11:44:26.487Z,25.18
2022-09-12T11:45:26.481Z,25.02
2022-09-12T11:46:26.489Z,25.06
2022-09-12T11:47:26.457Z,24.91
2022-09-12T11:48:26.457Z,24.64
2022-09-12T11:49:26.473Z,24.47
2022-09-12T11:50:26.424Z,24.34
2022-09-12T11:51:26.411Z,24.25
2022-09-12T11:52:26.478Z,24.02
2022-09-12T11:53:31.433Z,23.98
2022-09-12T11:54:26.383Z,24.00
2022-09-12T11:55:26.371Z,24.09
2022-09-12T11:56:26.354Z,24.13
2022-09-12T11:57:26.363Z,24.31
2022-09-12T11:58:26.332Z,24.47
2022-09-12T11:59:26.335Z,24.57
2022-09-12T12:00:26.311Z,24.46
2022-09-12T12:01:26.298Z,24.67
2022-09-12T12:02:26.326Z,24.71
2022-09-12T12:03:26.305Z,24.84
2022-09-12T12:04:31.294Z,25.10
2022-09-12T12:05:26.255Z,25.67
2022-09-12T12:06:26.242Z,26.54
2022-09-12T12:07:26.232Z,27.17
2022-09-12T12:08:26.218Z,27.54
2022-09-12T12:09:26.219Z,28.09
2022-09-12T12:10:26.202Z,28.58
2022-09-12T12:11:26.188Z,28.34
2022-09-12T12:12:26.184Z,28.44
2022-09-12T12:13:26.187Z,28.22
2022-09-12T12:14:26.168Z,28.07
2022-09-12T12:15:31.271Z,28.52
2022-09-12T12:16:26.160Z,28.95
2022-09-12T12:17:26.159Z,29.70
2022-09-12T12:18:26.109Z,29.68
2022-09-12T12:19:26.116Z,29.21
2022-09-12T12:20:26.093Z,28.61
2022-09-12T12:21:26.078Z,28.93
2022-09-12T12:22:26.080Z,28.61
2022-09-12T12:23:26.062Z,28.51
2022-09-12T12:24:26.079Z,29.00
2022-09-12T12:25:29.673Z,29.45
2022-09-12T12:26:26.022Z,29.11
2022-09-12T12:27:26.013Z,29.05
2022-09-12T12:28:34.922Z,28.83
2022-09-12T12:29:26.015Z,28.39
2022-09-12T12:30:26.014Z,28.43
2022-09-12T12:31:26.005Z,28.43
2022-09-12T12:32:25.959Z,28.54
2022-09-12T12:33:25.957Z,29.11
2022-09-12T12:34:25.946Z,29.33
2022-09-12T12:35:25.927Z,29.64
2022-09-12T12:36:25.920Z,29.42
2022-09-12T12:37:25.908Z,29.61
2022-09-12T12:38:25.895Z,29.68
2022-09-12T12:39:25.903Z,29.95
2022-09-12T12:40:25.881Z,29.97
2022-09-12T12:41:30.892Z,30.38
2022-09-12T12:42:25.879Z,30.61
2022-09-12T12:43:25.906Z,30.05
2022-09-12T12:44:25.865Z,29.42
2022-09-12T12:45:25.820Z,28.96
2022-09-12T12:46:25.894Z,28.07
2022-09-12T12:47:25.813Z,27.65
2022-09-12T12:48:25.800Z,27.28
2022-09-12T12:49:25.779Z,26.81
2022-09-12T12:50:25.768Z,26.35
2022-09-12T12:51:25.757Z,26.12
2022-09-12T12:52:25.756Z,26.07
2022-09-12T12:53:25.744Z,25.88
2022-09-12T12:54:30.742Z,25.69
2022-09-12T12:55:25.733Z,25.52
2022-09-12T12:56:25.727Z,25.38
2022-09-12T12:57:25.689Z,25.35
2022-09-12T12:58:25.752Z,25.27
2022-09-12T12:59:25.679Z,25.30
2022-09-12T13:00:25.672Z,25.24
2022-09-12T13:01:25.694Z,25.15
2022-09-12T13:02:25.663Z,25.02
2022-09-12T13:03:25.633Z,24.90
2022-09-12T13:04:25.623Z,24.85
2022-09-12T13:05:25.604Z,24.90
2022-09-12T13:06:25.591Z,24.93
2022-09-12T13:07:30.600Z,24.93
2022-09-12T13:08:25.565Z,24.84
2022-09-12T13:09:25.570Z,24.88
2022-09-12T13:10:25.557Z,24.99
2022-09-12T13:11:25.540Z,25.02
2022-09-12T13:12:25.561Z,24.93
2022-09-12T13:13:25.538Z,25.00
2022-09-12T13:14:25.514Z,24.98
2022-09-12T13:15:25.510Z,25.03
2022-09-12T13:16:25.497Z,24.91
2022-09-12T13:17:25.468Z,24.99
2022-09-12T13:18:30.485Z,24.93
2022-09-12T13:19:25.455Z,24.95
2022-09-12T13:20:29.384Z,24.93
2022-09-12T13:21:25.421Z,24.96
2022-09-12T13:22:25.420Z,24.95
2022-09-12T13:23:25.401Z,24.91
2022-09-12T13:24:25.421Z,24.85
2022-09-12T13:25:25.377Z,24.98
2022-09-12T13:26:25.369Z,24.95
2022-09-12T13:27:25.354Z,24.95
2022-09-12T13:28:25.345Z,24.91
2022-09-12T13:29:30.365Z,24.87
2022-09-12T13:30:25.321Z,24.88
2022-09-12T13:31:25.389Z,24.85
2022-09-12T13:32:25.618Z,24.90
2022-09-12T13:33:25.360Z,24.85
2022-09-12T13:34:25.382Z,24.84
2022-09-12T13:35:25.269Z,24.83
2022-09-12T13:36:25.296Z,24.88
2022-09-12T13:37:25.249Z,24.83
2022-09-12T13:38:25.235Z,24.84
2022-09-12T13:39:25.237Z,24.77
2022-09-12T13:40:30.236Z,24.90
2022-09-12T13:41:25.228Z,24.88
2022-09-12T13:42:25.190Z,24.85
2022-09-12T13:43:25.182Z,24.87
2022-09-12T13:44:25.192Z,24.90
2022-09-12T13:45:25.178Z,24.87
2022-09-12T13:46:25.254Z,24.99
2022-09-12T13:47:25.142Z,24.95
2022-09-12T13:48:25.182Z,24.90
2022-09-12T13:49:25.124Z,24.98
2022-09-12T13:50:25.101Z,24.91
2022-09-12T13:51:30.111Z,24.90
2022-09-12T13:52:25.086Z,24.85
2022-09-12T13:53:25.067Z,24.87
2022-09-12T13:54:25.100Z,24.68
2022-09-12T13:55:25.055Z,24.68
2022-09-12T13:56:25.035Z,24.68
2022-09-12T13:57:25.021Z,24.78
2022-09-12T13:58:25.011Z,24.67
2022-09-12T13:59:25.010Z,24.65
2022-09-12T14:00:24.988Z,24.67
2022-09-12T14:01:25.003Z,24.53
2022-09-12T14:02:30.008Z,24.61
2022-09-12T14:03:24.954Z,24.67
2022-09-12T14:04:24.979Z,24.58
2022-09-12T14:05:24.934Z,24.67
2022-09-12T14:06:24.943Z,24.65
2022-09-12T14:07:24.910Z,24.77
2022-09-12T14:08:24.899Z,24.77
2022-09-12T14:09:25.449Z,24.76
2022-09-12T14:10:24.881Z,24.69
2022-09-12T14:11:24.873Z,24.65
2022-09-12T14:12:24.860Z,24.77
2022-09-12T14:13:29.870Z,24.69
2022-09-12T14:14:24.855Z,24.77
2022-09-12T14:15:24.823Z,24.85
2022-09-12T14:16:24.806Z,24.85
2022-09-12T14:17:24.802Z,24.83
2022-09-12T14:18:24.788Z,24.91
2022-09-12T14:19:24.817Z,24.96
2022-09-12T14:20:24.792Z,24.91
2022-09-12T14:21:24.752Z,24.95
2022-09-12T14:22:24.743Z,24.88
2022-09-12T14:23:24.733Z,24.98
2022-09-12T14:24:29.748Z,24.85
2022-09-12T14:25:24.715Z,24.88
2022-09-12T14:26:24.695Z,24.91
2022-09-12T14:27:24.715Z,24.98
2022-09-12T14:28:24.672Z,24.96
2022-09-12T14:29:24.672Z,24.96
2022-09-12T14:30:24.655Z,25.02
2022-09-12T14:31:24.682Z,24.98
2022-09-12T14:32:24.638Z,24.98
2022-09-12T14:33:24.619Z,25.03
2022-09-12T14:34:24.606Z,25.08
2022-09-12T14:35:29.645Z,25.09
2022-09-12T14:36:24.614Z,25.02
2022-09-12T14:37:24.572Z,25.15
2022-09-12T14:38:24.617Z,25.00
2022-09-12T14:39:24.550Z,25.14
2022-09-12T14:40:24.571Z,25.13
2022-09-12T14:41:24.527Z,25.09
2022-09-12T14:42:24.516Z,25.05
2022-09-12T14:43:24.505Z,25.10
2022-09-12T14:44:24.499Z,25.20
2022-09-12T14:45:24.501Z,25.03
2022-09-12T14:46:29.555Z,25.00
2022-09-12T14:47:24.535Z,25.09
2022-09-12T14:48:24.450Z,25.02
2022-09-12T14:49:24.439Z,25.06
2022-09-12T14:50:24.439Z,24.99
2022-09-12T14:51:24.439Z,25.09
2022-09-12T14:52:24.409Z,25.02
2022-09-12T14:53:24.396Z,25.08
2022-09-12T14:54:24.382Z,25.08
2022-09-12T14:55:24.385Z,25.00
2022-09-12T14:56:24.359Z,25.05
2022-09-12T14:57:29.375Z,24.98
2022-09-12T14:58:24.335Z,25.09
2022-09-12T14:59:24.330Z,24.98
2022-09-12T15:00:24.327Z,25.05
2022-09-12T15:01:24.303Z,25.05
2022-09-12T15:02:24.331Z,25.02
2022-09-12T15:03:24.333Z,25.05
2022-09-12T15:04:24.296Z,24.98
2022-09-12T15:05:24.269Z,25.00
2022-09-12T15:06:24.250Z,25.00
2022-09-12T15:07:24.253Z,24.93
2022-09-12T15:08:29.255Z,24.95
2022-09-12T15:09:24.214Z,24.95
2022-09-12T15:10:24.229Z,24.98
2022-09-12T15:11:24.191Z,24.98
2022-09-12T15:12:24.180Z,24.96
2022-09-12T15:13:24.173Z,24.98
2022-09-12T15:14:24.207Z,25.05
2022-09-12T15:15:24.166Z,25.05
2022-09-12T15:16:24.243Z,25.00
2022-09-12T15:17:24.124Z,25.03
2022-09-12T15:18:24.113Z,24.99
2022-09-12T15:19:29.124Z,25.00
2022-09-12T15:20:24.106Z,25.06
2022-09-12T15:21:24.082Z,24.98
2022-09-12T15:22:24.100Z,25.00
2022-09-12T15:23:24.079Z,24.90
2022-09-12T15:24:24.048Z,24.90
2022-09-12T15:25:24.046Z,24.99
2022-09-12T15:26:24.022Z,24.88
2022-09-12T15:27:24.010Z,24.88
2022-09-12T15:28:24.014Z,24.85
2022-09-12T15:29:24.003Z,24.88
2022-09-12T15:30:29.013Z,24.84
2022-09-12T15:31:24.020Z,24.88
2022-09-12T15:32:23.957Z,24.91
2022-09-12T15:33:23.943Z,24.98
2022-09-12T15:34:23.936Z,24.99
2022-09-12T15:35:23.933Z,24.95
2022-09-12T15:36:23.914Z,24.96
2022-09-12T15:37:23.898Z,24.95
2022-09-12T15:38:26.489Z,24.87
2022-09-12T15:39:23.984Z,24.90
2022-09-12T15:40:23.926Z,24.85
2022-09-12T15:41:28.878Z,24.80
2022-09-12T15:42:23.845Z,24.83
2022-09-12T15:43:23.840Z,24.85
2022-09-12T15:44:23.825Z,24.81
2022-09-12T15:45:23.819Z,24.83
2022-09-12T15:46:23.841Z,24.81
2022-09-12T15:47:23.794Z,24.85
2022-09-12T15:48:23.777Z,24.88
2022-09-12T15:49:23.768Z,24.85
2022-09-12T15:50:23.764Z,24.87
2022-09-12T15:51:23.742Z,24.87
2022-09-12T15:52:28.757Z,24.87
2022-09-12T15:53:23.718Z,24.93
2022-09-12T15:54:23.709Z,24.87
2022-09-12T15:55:23.809Z,24.93
2022-09-12T15:56:23.691Z,24.90
2022-09-12T15:57:23.675Z,24.88
2022-09-12T15:58:23.665Z,24.88
2022-09-12T15:59:23.655Z,24.96
2022-09-12T16:00:23.653Z,24.91
2022-09-12T16:01:23.690Z,24.91
2022-09-12T16:02:23.712Z,24.80
2022-09-12T16:03:28.646Z,24.78
2022-09-12T16:04:23.598Z,24.80
2022-09-12T16:05:23.593Z,24.78
2022-09-12T16:06:23.575Z,24.80
2022-09-12T16:07:23.561Z,24.83
2022-09-12T16:08:23.559Z,24.80
2022-09-12T16:09:23.542Z,24.71
2022-09-12T16:10:23.541Z,24.68
2022-09-12T16:11:23.623Z,24.71
2022-09-12T16:12:23.507Z,24.83
2022-09-12T16:13:23.496Z,24.68
2022-09-12T16:14:28.508Z,24.67
2022-09-12T16:15:23.496Z,24.68
2022-09-12T16:16:23.547Z,24.71
2022-09-12T16:17:23.480Z,24.68
2022-09-12T16:18:23.440Z,24.73
2022-09-12T16:19:23.436Z,24.73
2022-09-12T16:20:23.440Z,24.71
2022-09-12T16:21:23.404Z,24.67
2022-09-12T16:22:23.396Z,24.65
2022-09-12T16:23:23.381Z,24.69
2022-09-12T16:24:23.381Z,24.71
2022-09-12T16:25:28.391Z,24.65
2022-09-12T16:26:23.351Z,24.64
2022-09-12T16:27:23.380Z,24.76
2022-09-12T16:28:23.327Z,24.65
2022-09-12T16:29:23.317Z,24.71
2022-09-12T16:30:23.324Z,24.73
2022-09-12T16:31:23.357Z,24.73
2022-09-12T16:32:23.288Z,24.76
2022-09-12T16:33:23.284Z,24.68
2022-09-12T16:34:23.260Z,24.64
2022-09-12T16:35:23.260Z,24.61
2022-09-12T16:36:28.263Z,24.62
2022-09-12T16:37:23.224Z,24.47
2022-09-12T16:38:23.217Z,24.53
2022-09-12T16:39:23.206Z,24.46
2022-09-12T16:40:23.257Z,24.49
2022-09-12T16:41:24.365Z,24.42
2022-09-12T16:42:23.173Z,24.45
2022-09-12T16:43:23.178Z,24.46
2022-09-12T16:44:23.149Z,24.47
2022-09-12T16:45:23.151Z,24.39
2022-09-12T16:46:23.170Z,24.34
2022-09-12T16:47:28.146Z,24.32
2022-09-12T16:48:23.107Z,24.24
2022-09-12T16:49:23.090Z,24.27
2022-09-12T16:50:23.096Z,24.30
2022-09-12T16:51:23.106Z,24.27
2022-09-12T16:52:23.061Z,24.21